createdAt,value
2022-09-09T00:02:21.107Z,13.70
2022-09-09T00:05:15.892Z,13.70
2022-09-09T00:07:49.418Z,13.70
2022-09-09T00:10:40.631Z,13.70
2022-09-09T00:13:12.392Z,13.70
2022-09-09T00:15:53.757Z,13.70
2022-09-09T00:18:33.306Z,13.60
2022-09-09T00:21:11.550Z,13.60
2022-09-09T00:23:52.585Z,13.60
2022-09-09T00:26:36.102Z,13.60
2022-09-09T00:29:17.001Z,13.60
2022-09-09T00:31:48.808Z,13.60
2022-09-09T00:34:25.590Z,13.60
2022-09-09T00:37:00.654Z,13.60
2022-09-09T00:39:38.107Z,13.60
2022-09-09T00:42:12.880Z,13.60
2022-09-09T00:44:59.955Z,13.60
2022-09-09T00:47:44.164Z,13.60
2022-09-09T00:50:37.312Z,13.60
2022-09-09T00:53:15.285Z,13.60
2022-09-09T00:56:21.116Z,13.60
2022-09-09T00:59:01.157Z,13.60
2022-09-09T01:01:32.984Z,13.60
2022-09-09T01:04:11.073Z,13.70
2022-09-09T01:06:43.264Z,13.70
2022-09-09T01:09:18.288Z,13.70
2022-09-09T01:12:02.242Z,13.70
2022-09-09T01:14:40.982Z,13.70
2022-09-09T01:17:12.658Z,13.70
2022-09-09T01:19:44.434Z,13.70
2022-09-09T01:22:23.402Z,13.70
2022-09-09T01:25:16.852Z,13.70
2022-09-09T01:27:50.781Z,13.70
2022-09-09T01:30:22.559Z,13.60
2022-09-09T01:32:56.612Z,13.60
2022-09-09T01:35:33.872Z,13.60
2022-09-09T01:38:05.629Z,13.60
2022-09-09T01:40:37.851Z,13.60
2022-09-09T01:43:09.804Z,13.60
2022-09-09T01:45:43.354Z,13.60
2022-09-09T01:48:15.267Z,13.60
2022-09-09T01:50:47.059Z,13.50
2022-09-09T01:53:20.197Z,13.50
2022-09-09T01:55:54.931Z,13.60
2022-09-09T01:58:44.872Z,13.60
2022-09-09T02:01:22.085Z,13.60
2022-09-09T02:03:55.134Z,13.60
2022-09-09T02:06:39.881Z,13.60
2022-09-09T02:09:12.770Z,13.60
2022-09-09T02:11:45.567Z,13.60
2022-09-09T02:14:20.279Z,13.60
2022-09-09T02:16:54.903Z,13.60
2022-09-09T02:19:27.412Z,13.60
2022-09-09T02:22:00.382Z,13.50
2022-09-09T02:24:34.457Z,13.60
2022-09-09T02:27:08.573Z,13.60
2022-09-09T02:29:45.839Z,13.60
2022-09-09T02:32:22.974Z,13.60
2022-09-09T02:34:57.482Z,13.60
2022-09-09T02:37:36.288Z,13.60
2022-09-09T02:40:09.605Z,13.60
2022-09-09T02:42:44.423Z,13.60
2022-09-09T02:45:20.565Z,13.60
2022-09-09T02:48:04.774Z,13.60
2022-09-09T02:50:44.929Z,13.60
2022-09-09T02:53:21.975Z,13.50
2022-09-09T02:56:02.199Z,13.50
2022-09-09T02:58:34.435Z,13.50
2022-09-09T03:01:06.277Z,13.50
2022-09-09T03:03:38.157Z,13.50
2022-09-09T03:06:09.927Z,13.40
2022-09-09T03:08:48.509Z,13.40
2022-09-09T03:11:23.487Z,13.40
2022-09-09T03:13:57.086Z,13.30
2022-09-09T03:16:28.926Z,13.30
2022-09-09T03:19:01.388Z,13.30
2022-09-09T03:21:33.271Z,13.20
2022-09-09T03:24:05.187Z,13.10
2022-09-09T03:26:38.685Z,12.90
2022-09-09T03:29:10.419Z,12.80
2022-09-09T03:31:44.757Z,12.70
2022-09-09T03:34:16.544Z,12.50
2022-09-09T03:36:49.762Z,12.40
2022-09-09T03:39:21.575Z,12.20
2022-09-09T03:41:53.338Z,12.20
2022-09-09T03:44:25.103Z,12.10
2022-09-09T03:46:57.024Z,12.10
2022-09-09T03:49:31.716Z,12.00
2022-09-09T03:52:03.550Z,12.00
2022-09-09T03:54:36.137Z,11.90
2022-09-09T03:57:08.164Z,11.90
2022-09-09T03:59:39.946Z,11.80
2022-09-09T04:02:11.800Z,11.80
2022-09-09T04:04:43.619Z,11.70
2022-09-09T04:07:15.325Z,11.70
2022-09-09T04:09:47.081Z,11.70
2022-09-09T04:12:19.002Z,11.70
2022-09-09T04:14:50.814Z,11.60
2022-09-09T04:17:25.276Z,11.60
2022-09-09T04:19:58.221Z,11.60
2022-09-09T04:22:29.940Z,11.60
2022-09-09T04:25:01.755Z,11.50
2022-09-09T04:27:33.469Z,11.50
2022-09-09T04:30:05.723Z,11.50
2022-09-09T04:32:38.060Z,11.50
2022-09-09T04:35:09.831Z,11.50
2022-09-09T04:37:41.933Z,11.50
2022-09-09T04:40:13.778Z,11.40
2022-09-09T04:42:45.856Z,11.40
2022-09-09T04:45:17.664Z,11.40
2022-09-09T04:47:50.164Z,11.40
2022-09-09T04:50:21.993Z,11.40
2022-09-09T04:52:53.684Z,11.40
2022-09-09T04:55:25.413Z,11.40
2022-09-09T04:57:58.499Z,11.40
2022-09-09T05:00:30.335Z,11.40
2022-09-09T05:03:09.917Z,11.30
2022-09-09T05:05:41.666Z,11.30
2022-09-09T05:08:13.455Z,11.30
2022-09-09T05:10:45.289Z,11.30
2022-09-09T05:13:16.993Z,11.30
2022-09-09T05:16:00.334Z,11.30
2022-09-09T05:18:34.643Z,11.20
2022-09-09T05:21:07.403Z,11.20
2022-09-09T05:23:39.490Z,11.20
2022-09-09T05:26:17.374Z,11.20
2022-09-09T05:28:49.603Z,11.20
2022-09-09T05:31:21.535Z,11.20
2022-09-09T05:33:53.430Z,11.20
2022-09-09T05:36:25.349Z,11.10
2022-09-09T05:38:57.138Z,11.10
2022-09-09T05:41:30.016Z,11.10
2022-09-09T05:44:04.576Z,11.10
2022-09-09T05:46:36.864Z,11.10
2022-09-09T05:49:09.336Z,11.10
2022-09-09T05:51:41.419Z,11.00
2022-09-09T05:54:16.445Z,11.10
2022-09-09T05:56:51.574Z,11.10
2022-09-09T05:59:24.728Z,11.10
2022-09-09T06:01:56.778Z,11.10
2022-09-09T06:04:28.531Z,11.10
2022-09-09T06:07:00.280Z,11.00
2022-09-09T06:09:32.154Z,11.00
2022-09-09T06:12:04.282Z,10.90
2022-09-09T06:14:36.026Z,10.90
2022-09-09T06:17:07.822Z,10.80
2022-09-09T06:19:39.519Z,10.80
2022-09-09T06:22:13.732Z,10.70
2022-09-09T06:24:45.902Z,10.70
2022-09-09T06:27:17.876Z,10.70
2022-09-09T06:29:49.586Z,10.70
2022-09-09T06:32:21.377Z,10.60
2022-09-09T06:34:53.166Z,10.60
2022-09-09T06:37:25.204Z,10.60
2022-09-09T06:39:59.469Z,10.60
2022-09-09T06:42:32.647Z,10.60
2022-09-09T06:45:04.514Z,10.60
2022-09-09T06:47:36.315Z,10.60
2022-09-09T06:50:08.356Z,10.60
2022-09-09T06:52:40.328Z,10.50
2022-09-09T06:55:14.229Z,10.50
2022-09-09T06:57:46.014Z,10.50
2022-09-09T07:00:18.035Z,10.50
2022-09-09T07:02:52.136Z,10.50
2022-09-09T07:05:29.029Z,10.40
2022-09-09T07:08:03.318Z,10.40
2022-09-09T07:10:35.417Z,10.40
2022-09-09T07:13:07.969Z,10.40
2022-09-09T07:15:40.080Z,10.40
2022-09-09T07:18:14.378Z,10.40
2022-09-09T07:20:58.809Z,10.40
2022-09-09T07:23:36.159Z,10.40
2022-09-09T07:26:12.849Z,10.40
2022-09-09T07:28:44.654Z,10.40
2022-09-09T07:31:18.104Z,10.40
2022-09-09T07:33:49.929Z,10.40
2022-09-09T07:36:31.215Z,10.40
2022-09-09T07:39:06.268Z,10.40
2022-09-09T07:41:41.569Z,10.40
2022-09-09T07:44:18.152Z,10.40
2022-09-09T07:46:50.299Z,10.50
2022-09-09T07:49:28.481Z,10.50
2022-09-09T07:52:01.644Z,10.50
2022-09-09T07:54:33.869Z,10.50
2022-09-09T07:57:05.586Z,10.50
2022-09-09T07:59:37.341Z,10.50
2022-09-09T08:02:10.642Z,10.50
2022-09-09T08:04:42.409Z,10.50
2022-09-09T08:07:14.393Z,10.40
2022-09-09T08:09:48.473Z,10.40
2022-09-09T08:12:20.228Z,10.50
2022-09-09T08:14:52.939Z,10.50
2022-09-09T08:17:27.378Z,10.50
2022-09-09T08:20:05.598Z,10.50
2022-09-09T08:22:38.796Z,10.50
2022-09-09T08:25:11.423Z,10.60
2022-09-09T08:27:43.168Z,10.60
2022-09-09T08:30:15.247Z,10.60
2022-09-09T08:32:47.240Z,10.60
2022-09-09T08:35:21.704Z,10.60
2022-09-09T08:37:55.061Z,10.60
2022-09-09T08:40:34.221Z,10.60
2022-09-09T08:43:09.491Z,10.60
2022-09-09T08:46:05.281Z,10.60
2022-09-09T08:48:45.025Z,10.50
2022-09-09T08:51:16.918Z,10.50
2022-09-09T08:53:54.412Z,10.60
2022-09-09T08:56:30.002Z,10.70
2022-09-09T08:59:04.112Z,10.70
2022-09-09T09:01:41.967Z,10.70
2022-09-09T09:04:30.176Z,10.70
2022-09-09T09:07:01.962Z,10.80
2022-09-09T09:09:44.556Z,10.80
2022-09-09T09:12:20.367Z,10.80
2022-09-09T09:14:56.558Z,10.90
2022-09-09T09:17:32.420Z,10.90
2022-09-09T09:20:05.651Z,10.90
2022-09-09T09:22:48.361Z,10.90
2022-09-09T09:25:23.492Z,11.00
2022-09-09T09:27:58.435Z,11.00
2022-09-09T09:30:32.416Z,11.00
2022-09-09T09:33:11.784Z,10.90
2022-09-09T09:35:44.718Z,11.00
2022-09-09T09:41:19.445Z,11.10
2022-09-09T09:43:54.860Z,11.10
2022-09-09T09:46:28.190Z,11.10
2022-09-09T09:49:01.211Z,11.10
2022-09-09T09:51:33.648Z,11.20
2022-09-09T09:54:10.736Z,11.20
2022-09-09T09:56:43.797Z,11.10
2022-09-09T09:59:38.824Z,11.20
2022-09-09T10:02:16.932Z,11.20
2022-09-09T10:04:48.923Z,11.20
2022-09-09T10:07:21.822Z,11.20
2022-09-09T10:09:57.668Z,11.10
2022-09-09T10:12:38.433Z,11.10
2022-09-09T10:15:14.379Z,11.10
2022-09-09T10:18:08.204Z,11.20
2022-09-09T10:20:46.933Z,11.30
2022-09-09T10:23:18.634Z,11.40
2022-09-09T10:26:08.987Z,11.40
2022-09-09T10:28:41.692Z,11.40
2022-09-09T10:31:20.952Z,11.40
2022-09-09T10:33:59.346Z,11.50
2022-09-09T10:36:31.111Z,11.60
2022-09-09T10:39:14.593Z,11.60
2022-09-09T10:41:46.863Z,11.70
2022-09-09T10:44:40.032Z,11.70
2022-09-09T10:47:28.254Z,11.70
2022-09-09T10:50:06.085Z,11.70
2022-09-09T10:52:52.048Z,11.70
2022-09-09T10:55:29.905Z,11.70
2022-09-09T10:58:03.986Z,11.70
2022-09-09T11:00:44.057Z,11.80
2022-09-09T11:03:36.163Z,11.80
2022-09-09T11:06:13.199Z,11.80
2022-09-09T11:08:45.012Z,11.90
2022-09-09T11:11:22.677Z,12.00
2022-09-09T11:14:17.696Z,12.00
2022-09-09T11:16:52.126Z,12.20
2022-09-09T11:19:26.984Z,12.20
2022-09-09T11:21:59.602Z,12.20
2022-09-09T11:24:36.279Z,12.20
2022-09-09T11:27:20.106Z,12.20
2022-09-09T11:29:54.922Z,12.20
2022-09-09T11:32:39.318Z,12.20
2022-09-09T11:35:17.533Z,12.20
2022-09-09T11:37:55.262Z,12.10
2022-09-09T11:40:28.361Z,12.10
2022-09-09T11:43:09.129Z,12.10
2022-09-09T11:45:44.293Z,12.10
2022-09-09T11:48:34.722Z,12.10
2022-09-09T11:51:16.483Z,12.20
2022-09-09T11:53:55.122Z,12.10
2022-09-09T11:56:37.282Z,12.10
2022-09-09T11:59:22.874Z,12.10
2022-09-09T12:02:02.837Z,12.10
2022-09-09T12:04:43.070Z,12.10
2022-09-09T12:07:31.281Z,12.20
2022-09-09T12:10:20.387Z,12.10
2022-09-09T12:12:52.235Z,12.20
2022-09-09T12:15:26.480Z,12.10
2022-09-09T12:18:03.183Z,12.10
2022-09-09T12:20:37.334Z,12.20
2022-09-09T12:23:30.474Z,12.10
2022-09-09T12:26:16.676Z,12.20
2022-09-09T12:28:55.878Z,12.10
2022-09-09T12:31:31.696Z,12.10
2022-09-09T12:34:16.255Z,12.20
2022-09-09T12:36:53.819Z,12.10
2022-09-09T12:39:32.530Z,12.10
2022-09-09T12:42:05.401Z,12.10
2022-09-09T12:44:39.273Z,12.10
2022-09-09T12:47:11.107Z,12.10
2022-09-09T12:49:45.927Z,12.10
2022-09-09T12:52:20.719Z,12.20
2022-09-09T12:54:53.061Z,12.10
2022-09-09T12:57:26.554Z,12.10
2022-09-09T13:00:06.705Z,12.20
2022-09-09T13:02:46.378Z,12.20
2022-09-09T13:05:25.404Z,12.20
2022-09-09T13:08:12.824Z,12.20
2022-09-09T13:10:53.159Z,12.20
2022-09-09T13:13:37.006Z,12.20
2022-09-09T13:16:20.305Z,12.20
2022-09-09T13:18:52.731Z,12.20
2022-09-09T13:21:39.815Z,12.20
2022-09-09T13:24:28.521Z,12.20
2022-09-09T13:27:03.006Z,12.20
2022-09-09T13:29:35.255Z,12.20
2022-09-09T13:32:08.997Z,12.20
2022-09-09T13:34:51.520Z,12.20
2022-09-09T13:37:28.676Z,12.20
2022-09-09T13:40:03.622Z,12.20
2022-09-09T13:42:38.755Z,12.20
2022-09-09T13:45:24.317Z,12.20
2022-09-09T13:47:56.643Z,12.20
2022-09-09T13:50:29.357Z,12.10
2022-09-09T13:53:01.188Z,12.10
2022-09-09T13:55:33.063Z,12.10
2022-09-09T13:58:06.133Z,12.10
2022-09-09T14:00:37.883Z,12.10
2022-09-09T14:03:11.776Z,12.00
2022-09-09T14:05:44.853Z,12.00
2022-09-09T14:08:24.468Z,12.10
2022-09-09T14:10:57.000Z,12.10
2022-09-09T14:13:28.873Z,12.10
2022-09-09T14:16:00.657Z,12.10
2022-09-09T14:18:32.523Z,12.20
2022-09-09T14:21:04.437Z,12.10
2022-09-09T14:23:36.238Z,12.20
2022-09-09T14:26:08.013Z,12.20
2022-09-09T14:28:56.722Z,12.20
2022-09-09T14:31:28.601Z,12.20
2022-09-09T14:34:00.379Z,12.20
2022-09-09T14:36:32.112Z,12.20
2022-09-09T14:39:06.651Z,12.20
2022-09-09T14:41:39.017Z,12.20
2022-09-09T14:44:12.996Z,12.20
2022-09-09T14:46:44.757Z,12.20
2022-09-09T14:49:16.674Z,12.20
2022-09-09T14:51:49.197Z,12.20
2022-09-09T14:54:22.360Z,12.20
2022-09-09T14:56:54.510Z,12.30
2022-09-09T14:59:26.369Z,12.20
2022-09-09T15:01:58.232Z,12.20
2022-09-09T15:04:30.045Z,12.20
2022-09-09T15:07:01.891Z,12.20
2022-09-09T15:09:33.668Z,12.30
2022-09-09T15:12:05.743Z,12.30
2022-09-09T15:14:37.938Z,12.20
2022-09-09T15:17:09.691Z,12.20
2022-09-09T15:19:43.166Z,12.20
2022-09-09T15:22:15.380Z,12.20
2022-09-09T15:24:47.183Z,12.20
2022-09-09T15:27:19.138Z,12.30
2022-09-09T15:29:52.623Z,12.30
2022-09-09T15:32:24.484Z,12.30
2022-09-09T15:34:56.417Z,12.30
2022-09-09T15:37:28.222Z,12.30
2022-09-09T15:40:01.043Z,12.30
2022-09-09T15:42:32.895Z,12.30
2022-09-09T15:45:06.237Z,12.30
2022-09-09T15:47:38.049Z,12.30
2022-09-09T15:50:09.919Z,12.30
2022-09-09T15:52:42.574Z,12.30
2022-09-09T15:55:16.813Z,12.30
2022-09-09T15:57:50.901Z,12.30
2022-09-09T16:00:24.038Z,12.30
2022-09-09T16:02:55.897Z,12.30
2022-09-09T16:05:27.991Z,12.30
2022-09-09T16:07:59.825Z,12.30
2022-09-09T16:10:32.315Z,12.30
2022-09-09T16:13:06.728Z,12.30
2022-09-09T16:15:38.620Z,12.30
2022-09-09T16:18:10.535Z,12.30
2022-09-09T16:20:42.832Z,12.30
2022-09-09T16:23:14.579Z,12.30
2022-09-09T16:25:53.842Z,12.30
2022-09-09T16:28:25.596Z,12.20
2022-09-09T16:30:57.966Z,12.20
2022-09-09T16:33:31.586Z,12.20
2022-09-09T16:36:08.034Z,12.20
2022-09-09T16:38:42.124Z,12.20
2022-09-09T16:41:15.220Z,12.20
2022-09-09T16:43:46.979Z,12.30
2022-09-09T16:46:19.508Z,12.20
2022-09-09T16:48:51.635Z,12.30
2022-09-09T16:51:43.627Z,12.30
2022-09-09T16:54:17.124Z,12.20
2022-09-09T16:56:49.084Z,12.20
2022-09-09T16:59:21.972Z,12.20
2022-09-09T17:01:53.901Z,12.20
2022-09-09T17:04:29.239Z,12.20
2022-09-09T17:07:01.695Z,12.20
2022-09-09T17:09:33.450Z,12.20
2022-09-09T17:12:05.568Z,12.30
2022-09-09T17:14:37.384Z,12.20
2022-09-09T17:17:30.672Z,12.30
2022-09-09T17:20:01.269Z,12.30
2022-09-09T17:22:35.787Z,12.30
2022-09-09T17:25:10.232Z,12.30
2022-09-09T17:27:41.965Z,12.20
2022-09-09T17:30:13.891Z,12.20
2022-09-09T17:32:45.794Z,12.20
2022-09-09T17:35:17.563Z,12.20
2022-09-09T17:37:49.426Z,12.20
2022-09-09T17:40:21.423Z,12.20
2022-09-09T17:42:53.246Z,12.30
2022-09-09T17:45:25.002Z,12.20
2022-09-09T17:47:57.673Z,12.20
2022-09-09T17:50:29.403Z,12.20
2022-09-09T17:53:01.178Z,12.20
2022-09-09T17:55:33.817Z,12.20
2022-09-09T17:58:06.404Z,12.20
2022-09-09T18:00:38.262Z,12.30
2022-09-09T18:03:10.153Z,12.30
2022-09-09T18:05:41.954Z,12.30
2022-09-09T18:08:16.242Z,12.30
2022-09-09T18:10:54.050Z,12.30
2022-09-09T18:13:25.883Z,12.30
2022-09-09T18:15:58.102Z,12.40
2022-09-09T18:18:30.048Z,12.40
2022-09-09T18:21:06.614Z,12.40
2022-09-09T18:23:39.527Z,12.40
2022-09-09T18:26:12.827Z,12.40
2022-09-09T18:28:48.203Z,12.40
2022-09-09T18:31:21.380Z,12.40
2022-09-09T18:33:53.918Z,12.40
2022-09-09T18:36:30.141Z,12.40
2022-09-09T18:39:03.723Z,12.40
2022-09-09T18:41:37.642Z,12.40
2022-09-09T18:44:17.127Z,12.40
2022-09-09T18:46:49.467Z,12.40
2022-09-09T18:49:22.161Z,12.50
2022-09-09T18:51:54.182Z,12.50
2022-09-09T18:54:29.811Z,12.50
2022-09-09T18:57:01.708Z,12.50
2022-09-09T18:59:33.561Z,12.50
2022-09-09T19:02:05.557Z,12.50
2022-09-09T19:04:37.443Z,12.50
2022-09-09T19:07:09.267Z,12.50
2022-09-09T19:09:41.097Z,12.50
2022-09-09T19:12:12.967Z,12.50
2022-09-09T19:14:45.533Z,12.50
2022-09-09T19:17:17.293Z,12.50
2022-09-09T19:19:49.559Z,12.50
2022-09-09T19:22:24.505Z,12.50
2022-09-09T19:24:57.666Z,12.40
2022-09-09T19:27:30.350Z,12.50
2022-09-09T19:30:02.402Z,12.50
2022-09-09T19:32:52.827Z,12.50
2022-09-09T19:35:25.327Z,12.50
2022-09-09T19:38:01.397Z,12.50
2022-09-09T19:40:35.668Z,12.50
2022-09-09T19:43:07.491Z,12.50
2022-09-09T19:45:39.255Z,12.50
2022-09-09T19:48:11.021Z,12.50
2022-09-09T19:50:44.461Z,12.50
2022-09-09T19:53:17.929Z,12.50
2022-09-09T19:55:51.019Z,12.50
2022-09-09T19:58:25.266Z,12.50
2022-09-09T20:00:57.670Z,12.50
2022-09-09T20:03:29.499Z,12.50
2022-09-09T20:06:01.500Z,12.50
2022-09-09T20:08:33.714Z,12.50
2022-09-09T20:11:06.179Z,12.50
2022-09-09T20:13:41.966Z,12.50
2022-09-09T20:16:15.684Z,12.50
2022-09-09T20:18:50.920Z,12.50
2022-09-09T20:21:23.705Z,12.50
2022-09-09T20:23:56.045Z,12.50
2022-09-09T20:26:29.059Z,12.50
2022-09-09T20:29:01.547Z,12.50
2022-09-09T20:31:36.514Z,12.50
2022-09-09T20:34:15.040Z,12.50
2022-09-09T20:36:47.259Z,12.50
2022-09-09T20:39:20.162Z,12.50
2022-09-09T20:41:52.435Z,12.50
2022-09-09T20:44:24.532Z,12.60
2022-09-09T20:47:02.929Z,12.50
2022-09-09T20:49:35.324Z,12.60
2022-09-09T20:52:07.225Z,12.60
2022-09-09T20:54:39.395Z,12.50
2022-09-09T20:57:12.064Z,12.50
2022-09-09T20:59:44.805Z,12.50
2022-09-09T21:02:18.303Z,12.50
2022-09-09T21:04:50.109Z,12.60
2022-09-09T21:07:24.016Z,12.60
2022-09-09T21:09:57.540Z,12.50
2022-09-09T21:12:30.413Z,12.60
2022-09-09T21:15:02.175Z,12.50
2022-09-09T21:17:34.027Z,12.60
2022-09-09T21:20:06.829Z,12.50
2022-09-09T21:22:38.579Z,12.60
2022-09-09T21:25:10.391Z,12.50
2022-09-09T21:27:42.161Z,12.60
2022-09-09T21:30:14.171Z,12.60
2022-09-09T21:32:46.015Z,12.60
2022-09-09T21:35:19.110Z,12.50
2022-09-09T21:37:54.209Z,12.50
2022-09-09T21:40:26.509Z,12.50
2022-09-09T21:42:59.649Z,12.50
2022-09-09T21:45:34.226Z,12.50
2022-09-09T21:48:06.856Z,12.50
2022-09-09T21:50:39.326Z,12.50
2022-09-09T21:53:11.662Z,12.60
2022-09-09T21:55:43.375Z,12.50
2022-09-09T21:58:15.792Z,12.50
2022-09-09T22:00:47.554Z,12.50
2022-09-09T22:03:19.412Z,12.50
2022-09-09T22:05:53.977Z,12.50
2022-09-09T22:08:25.910Z,12.50
2022-09-09T22:10:57.753Z,12.50
2022-09-09T22:13:30.103Z,12.50
2022-09-09T22:16:03.495Z,12.50
2022-09-09T22:18:35.792Z,12.50
2022-09-09T22:21:10.772Z,12.50
2022-09-09T22:23:42.970Z,12.50
2022-09-09T22:26:15.281Z,12.50
2022-09-09T22:28:47.462Z,12.50
2022-09-09T22:31:20.907Z,12.50
2022-09-09T22:33:52.744Z,12.50
2022-09-09T22:36:26.706Z,12.50
2022-09-09T22:39:01.254Z,12.50
2022-09-09T22:41:35.212Z,12.50
2022-09-09T22:44:07.704Z,12.50
2022-09-09T22:46:39.802Z,12.50
2022-09-09T22:49:12.190Z,12.40
2022-09-09T22:51:44.051Z,12.40
2022-09-09T22:54:21.611Z,12.40
2022-09-09T22:56:53.523Z,12.50
2022-09-09T22:59:25.336Z,12.50
2022-09-09T23:01:58.997Z,12.40
2022-09-09T23:04:30.805Z,12.40
2022-09-09T23:07:03.364Z,12.40
2022-09-09T23:09:35.108Z,12.40
2022-09-09T23:12:08.499Z,12.40
2022-09-09T23:14:40.327Z,12.40
2022-09-09T23:17:18.596Z,12.50
2022-09-09T23:19:55.544Z,12.50
2022-09-09T23:22:27.742Z,12.50
2022-09-09T23:25:00.424Z,12.40
2022-09-09T23:27:32.980Z,12.40
2022-09-09T23:30:07.163Z,12.40
2022-09-09T23:32:41.717Z,12.40
2022-09-09T23:35:13.655Z,12.40
2022-09-09T23:37:48.714Z,12.40
2022-09-09T23:40:20.643Z,12.40
2022-09-09T23:42:54.032Z,12.40
2022-09-09T23:45:25.837Z,12.40
2022-09-09T23:47:57.549Z,12.40
2022-09-09T23:50:29.348Z,12.30
2022-09-09T23:53:02.133Z,12.30
2022-09-09T23:55:34.356Z,12.30
2022-09-09T23:58:06.055Z,12.30
